createdAt,value
2023-01-17T00:04:54.280Z,-9.90
2023-01-17T00:10:05.971Z,-9.73
2023-01-17T00:15:10.378Z,-9.72
2023-01-17T00:20:52.077Z,-9.75
2023-01-17T00:26:06.730Z,-9.64
2023-01-17T00:31:12.197Z,-9.72
2023-01-17T00:36:16.058Z,-9.59
2023-01-17T00:41:20.459Z,-9.53
2023-01-17T00:46:46.743Z,-9.48
2023-01-17T00:52:09.118Z,-9.46
2023-01-17T00:57:31.165Z,-9.69
2023-01-17T01:02:57.005Z,-9.33
2023-01-17T01:08:25.513Z,-9.24
2023-01-17T01:13:51.148Z,-9.13
2023-01-17T01:19:13.463Z,-9.05
2023-01-17T01:24:36.044Z,-8.99
2023-01-17T01:29:59.684Z,-8.90
2023-01-17T01:35:06.872Z,-8.83
2023-01-17T01:40:12.622Z,-8.76
2023-01-17T01:45:27.946Z,-8.72
2023-01-17T01:50:37.535Z,-8.66
2023-01-17T01:55:51.222Z,-8.61
2023-01-17T02:00:54.986Z,-8.56
2023-01-17T02:06:27.998Z,-8.60
2023-01-17T02:11:33.173Z,-8.50
2023-01-17T02:17:01.970Z,-8.46
2023-01-17T02:22:33.610Z,-8.40
2023-01-17T02:27:59.760Z,-8.37
2023-01-17T02:33:19.727Z,-8.34
2023-01-17T02:38:32.317Z,-8.25
2023-01-17T02:43:40.372Z,-8.22
2023-01-17T02:48:46.999Z,-8.17
2023-01-17T02:53:59.343Z,-8.13
2023-01-17T02:59:16.586Z,-8.08
2023-01-17T03:05:01.733Z,-8.02
2023-01-17T03:10:14.585Z,-7.99
2023-01-17T03:15:22.034Z,-7.97
2023-01-17T03:20:28.438Z,-7.88
2023-01-17T03:25:35.254Z,-7.83
2023-01-17T03:30:41.987Z,-7.76
2023-01-17T03:35:51.941Z,-7.69
2023-01-17T03:40:56.848Z,-7.64
2023-01-17T03:46:09.324Z,-7.58
2023-01-17T03:51:17.088Z,-7.53
2023-01-17T03:56:22.063Z,-7.43
2023-01-17T04:01:28.970Z,-7.38
2023-01-17T04:06:32.772Z,-7.34
2023-01-17T04:11:40.075Z,-7.25
2023-01-17T04:16:46.056Z,-7.19
2023-01-17T04:21:49.862Z,-7.13
2023-01-17T04:26:55.023Z,-7.05
2023-01-17T04:31:59.626Z,-7.01
2023-01-17T04:37:03.973Z,-6.92
2023-01-17T04:42:08.526Z,-6.82
2023-01-17T04:47:13.107Z,-6.77
2023-01-17T04:52:23.684Z,-6.71
2023-01-17T04:57:28.605Z,-6.66
2023-01-17T05:02:33.284Z,-6.57
2023-01-17T05:07:40.529Z,-6.62
2023-01-17T05:12:45.443Z,-6.47
2023-01-17T05:17:50.116Z,-6.41
2023-01-17T05:22:58.402Z,-6.48
2023-01-17T05:28:04.830Z,-6.31
2023-01-17T05:33:10.927Z,-6.32
2023-01-17T05:38:14.685Z,-6.22
2023-01-17T05:43:19.871Z,-6.15
2023-01-17T05:48:25.241Z,-6.09
2023-01-17T05:53:30.788Z,-6.05
2023-01-17T05:58:35.495Z,-6.01
2023-01-17T06:03:50.090Z,-6.00
2023-01-17T06:08:54.789Z,-5.96
2023-01-17T06:13:58.898Z,-5.93
2023-01-17T06:19:02.735Z,-5.88
2023-01-17T06:24:08.280Z,-5.82
2023-01-17T06:29:13.282Z,-5.76
2023-01-17T06:34:19.087Z,-5.81
2023-01-17T06:39:22.841Z,-5.70
2023-01-17T06:44:27.030Z,-5.68
2023-01-17T06:49:33.677Z,-5.69
2023-01-17T06:54:37.517Z,-5.68
2023-01-17T06:59:42.881Z,-5.75
2023-01-17T07:04:48.419Z,-5.64
2023-01-17T07:09:53.017Z,-5.60
2023-01-17T07:14:56.976Z,-5.60
2023-01-17T07:20:02.283Z,-5.61
2023-01-17T07:25:08.048Z,-5.61
2023-01-17T07:30:14.906Z,-5.61
2023-01-17T07:35:19.683Z,-5.61
2023-01-17T07:40:24.969Z,-5.64
2023-01-17T07:45:29.048Z,-5.66
2023-01-17T07:50:33.048Z,-5.67
2023-01-17T07:55:37.170Z,-5.70
2023-01-17T08:00:41.169Z,-5.72
2023-01-17T08:05:58.612Z,-5.72
2023-01-17T08:11:03.020Z,-5.69
2023-01-17T08:16:09.977Z,-5.63
2023-01-17T08:21:17.657Z,-5.93
2023-01-17T08:26:23.735Z,-5.64
2023-01-17T08:31:34.665Z,-5.63
2023-01-17T08:36:43.494Z,-5.65
2023-01-17T08:41:48.216Z,-5.75
2023-01-17T08:46:52.785Z,-5.68
2023-01-17T08:52:00.305Z,-5.70
2023-01-17T08:57:07.405Z,-5.70
2023-01-17T09:02:20.989Z,-5.81
2023-01-17T09:07:25.406Z,-5.73
2023-01-17T09:12:39.075Z,-5.69
2023-01-17T09:17:43.593Z,-5.69
2023-01-17T09:22:48.990Z,-5.71
2023-01-17T09:27:56.627Z,-5.72
2023-01-17T09:33:02.798Z,-5.75
2023-01-17T09:38:08.887Z,-5.77
2023-01-17T09:43:39.022Z,-5.85
2023-01-17T09:48:47.494Z,-5.80
2023-01-17T09:53:54.530Z,-5.80
2023-01-17T09:59:10.138Z,-5.83
2023-01-17T10:04:32.003Z,-5.85
2023-01-17T10:09:50.263Z,-5.88
2023-01-17T10:15:18.835Z,-5.89
2023-01-17T10:20:48.127Z,-5.90
2023-01-17T10:25:55.205Z,-5.92
2023-01-17T10:31:19.442Z,-5.93
2023-01-17T10:36:43.364Z,-5.95
2023-01-17T10:42:00.563Z,-5.96
2023-01-17T10:47:10.503Z,-5.94
2023-01-17T10:52:24.527Z,-5.97
2023-01-17T10:57:33.550Z,-6.01
2023-01-17T11:02:52.264Z,-5.99
2023-01-17T11:07:59.055Z,-6.01
2023-01-17T11:13:05.577Z,-6.02
2023-01-17T11:18:19.814Z,-6.12
2023-01-17T11:23:36.992Z,-6.03
2023-01-17T11:28:43.239Z,-6.03
2023-01-17T11:33:57.139Z,-6.06
2023-01-17T11:39:10.033Z,-6.05
2023-01-17T11:44:27.151Z,-6.08
2023-01-17T11:49:31.652Z,-6.10
2023-01-17T11:54:41.174Z,-6.10
2023-01-17T11:59:48.348Z,-6.11
2023-01-17T12:05:13.105Z,-6.24
2023-01-17T12:10:42.477Z,-6.08
2023-01-17T12:16:29.221Z,-6.08
2023-01-17T12:21:36.836Z,-6.11
2023-01-17T12:27:08.321Z,-6.11
2023-01-17T12:32:17.922Z,-6.10
2023-01-17T12:37:38.589Z,-6.13
2023-01-17T12:42:55.039Z,-6.14
2023-01-17T12:48:08.361Z,-6.13
2023-01-17T12:53:24.892Z,-6.15
2023-01-17T12:58:43.730Z,-6.11
2023-01-17T13:04:12.760Z,-6.12
2023-01-17T13:09:23.694Z,-6.12
2023-01-17T13:14:28.826Z,-6.12
2023-01-17T13:19:47.911Z,-6.11
2023-01-17T13:25:12.487Z,-6.12
2023-01-17T13:30:45.535Z,-6.11
2023-01-17T13:36:21.400Z,-6.09
2023-01-17T13:41:49.027Z,-6.08
2023-01-17T13:47:29.228Z,-6.08
2023-01-17T13:52:37.399Z,-6.10
2023-01-17T13:57:43.961Z,-6.13
2023-01-17T14:02:52.651Z,-6.12
2023-01-17T14:08:14.635Z,-6.11
2023-01-17T14:13:40.019Z,-6.12
2023-01-17T14:18:46.390Z,-6.17
2023-01-17T14:23:58.646Z,-6.19
2023-01-17T14:29:41.144Z,-6.12
2023-01-17T14:34:50.097Z,-6.13
2023-01-17T14:39:57.282Z,-6.12
2023-01-17T14:45:10.648Z,-6.43
2023-01-17T14:50:24.678Z,-6.13
2023-01-17T14:55:29.983Z,-6.13
2023-01-17T15:00:42.084Z,-6.16
2023-01-17T15:05:50.823Z,-6.16
2023-01-17T15:11:11.222Z,-6.17
2023-01-17T15:16:27.789Z,-6.19
2023-01-17T15:21:44.274Z,-6.17
2023-01-17T15:26:49.728Z,-6.19
2023-01-17T15:31:58.945Z,-6.19
2023-01-17T15:37:09.761Z,-6.47
2023-01-17T15:42:27.054Z,-6.27
2023-01-17T15:47:36.045Z,-6.15
2023-01-17T15:52:49.959Z,-6.16
2023-01-17T15:57:55.050Z,-6.12
2023-01-17T16:03:02.858Z,-6.12
2023-01-17T16:08:08.075Z,-6.12
2023-01-17T16:13:14.272Z,-6.12
2023-01-17T16:18:26.937Z,-6.12
2023-01-17T16:23:34.860Z,-6.11
2023-01-17T16:28:39.903Z,-6.19
2023-01-17T16:33:44.004Z,-6.12
2023-01-17T16:38:53.201Z,-6.11
2023-01-17T16:44:05.919Z,-6.10
2023-01-17T16:49:13.933Z,-6.10
2023-01-17T16:54:19.883Z,-6.10
2023-01-17T16:59:25.071Z,-6.10
2023-01-17T17:04:30.135Z,-6.14
2023-01-17T17:09:35.239Z,-6.14
2023-01-17T17:14:40.279Z,-6.14
2023-01-17T17:19:44.262Z,-6.15
2023-01-17T17:24:51.307Z,-6.16
2023-01-17T17:29:55.409Z,-6.16
2023-01-17T17:35:00.824Z,-6.16
2023-01-17T17:40:06.039Z,-6.15
2023-01-17T17:45:11.276Z,-6.14
2023-01-17T17:50:16.483Z,-6.14
2023-01-17T17:55:21.946Z,-6.15
2023-01-17T18:00:25.723Z,-6.17
2023-01-17T18:05:31.215Z,-6.15
2023-01-17T18:10:34.989Z,-6.17
2023-01-17T18:15:39.087Z,-6.16
2023-01-17T18:20:45.744Z,-6.23
2023-01-17T18:25:49.934Z,-6.30
2023-01-17T18:30:54.584Z,-6.41
2023-01-17T18:36:00.217Z,-6.38
2023-01-17T18:41:12.889Z,-6.46
2023-01-17T18:46:18.074Z,-6.64
2023-01-17T18:51:25.068Z,-6.72
2023-01-17T18:56:32.960Z,-6.74
2023-01-17T19:01:37.721Z,-7.13
2023-01-17T19:06:45.177Z,-6.98
2023-01-17T19:11:49.139Z,-7.10
2023-01-17T19:16:52.974Z,-7.19
2023-01-17T19:22:00.948Z,-7.28
2023-01-17T19:27:07.985Z,-7.31
2023-01-17T19:32:15.076Z,-7.33
2023-01-17T19:37:19.940Z,-7.31
2023-01-17T19:42:23.696Z,-7.33
2023-01-17T19:47:28.986Z,-7.46
2023-01-17T19:52:33.675Z,-7.59
2023-01-17T19:57:41.381Z,-7.71
2023-01-17T20:02:45.183Z,-7.78
2023-01-17T20:07:50.102Z,-7.83
2023-01-17T20:12:53.851Z,-7.87
2023-01-17T20:17:59.066Z,-7.86
2023-01-17T20:23:06.306Z,-7.89
2023-01-17T20:28:11.817Z,-7.92
2023-01-17T20:33:18.621Z,-7.93
2023-01-17T20:38:28.341Z,-7.99
2023-01-17T20:43:35.538Z,-8.11
2023-01-17T20:49:02.715Z,-8.13
2023-01-17T20:54:11.994Z,-8.21
2023-01-17T20:59:18.869Z,-8.24
2023-01-17T21:04:26.406Z,-8.25
2023-01-17T21:09:34.943Z,-8.29
2023-01-17T21:14:42.298Z,-8.61
2023-01-17T21:19:46.828Z,-8.38
2023-01-17T21:24:51.494Z,-8.36
2023-01-17T21:29:56.437Z,-8.47
2023-01-17T21:35:02.572Z,-8.74
2023-01-17T21:40:09.029Z,-8.78
2023-01-17T21:45:13.963Z,-8.92
2023-01-17T21:50:32.472Z,-9.00
2023-01-17T21:55:58.125Z,-9.10
2023-01-17T22:01:21.039Z,-9.24
2023-01-17T22:06:29.140Z,-9.29
2023-01-17T22:11:37.726Z,-9.30
2023-01-17T22:16:43.751Z,-9.42
2023-01-17T22:21:47.641Z,-9.37
2023-01-17T22:26:53.817Z,-9.40
2023-01-17T22:31:59.029Z,-9.41
2023-01-17T22:37:06.904Z,-9.42
2023-01-17T22:42:15.766Z,-9.49
2023-01-17T22:47:19.706Z,-9.48
2023-01-17T22:52:32.504Z,-9.54
2023-01-17T22:57:39.692Z,-9.61
2023-01-17T23:02:43.736Z,-9.61
2023-01-17T23:07:53.546Z,-9.71
2023-01-17T23:13:43.518Z,-9.76
2023-01-17T23:19:09.296Z,-9.75
2023-01-17T23:24:18.282Z,-9.80
2023-01-17T23:29:24.077Z,-9.99
2023-01-17T23:34:27.950Z,-10.00
2023-01-17T23:39:36.591Z,-9.91
2023-01-17T23:44:41.206Z,-9.91
2023-01-17T23:49:49.124Z,-9.94
2023-01-17T23:54:52.952Z,-9.98
